createdAt,value
2022-10-09T00:02:47.456Z,101765.06
2022-10-09T00:05:35.187Z,101776.75
2022-10-09T00:08:22.744Z,101763.75
2022-10-09T00:11:12.309Z,101757.63
2022-10-09T00:14:00.051Z,101767.59
2022-10-09T00:16:47.284Z,101774.13
2022-10-09T00:19:36.735Z,101771.78
2022-10-09T00:22:24.380Z,101770.84
2022-10-09T00:25:11.751Z,101769.16
2022-10-09T00:27:59.497Z,101779.53
2022-10-09T00:30:46.534Z,101780.06
2022-10-09T00:33:34.574Z,101774.66
2022-10-09T00:36:26.081Z,101774.91
2022-10-09T00:39:14.153Z,101774.91
2022-10-09T00:42:01.900Z,101775.09
2022-10-09T00:44:57.916Z,101782.38
2022-10-09T00:47:47.944Z,101773.06
2022-10-09T00:50:41.955Z,101781.78
2022-10-09T00:53:32.122Z,101789.97
2022-10-09T00:56:20.024Z,101789.91
2022-10-09T00:59:08.443Z,101794.50
2022-10-09T01:01:55.915Z,101802.91
2022-10-09T01:04:43.673Z,101800.44
2022-10-09T01:07:40.483Z,101800.72
2022-10-09T01:10:34.971Z,101801.13
2022-10-09T01:13:28.500Z,101797.47
2022-10-09T01:16:24.065Z,101799.19
2022-10-09T01:19:23.928Z,101799.34
2022-10-09T01:22:32.231Z,101795.50
2022-10-09T01:25:28.020Z,101794.16
2022-10-09T01:28:19.428Z,101802.97
2022-10-09T01:31:09.065Z,101789.03
2022-10-09T01:33:56.918Z,101789.13
2022-10-09T01:36:45.831Z,101785.25
2022-10-09T01:39:35.847Z,101779.66
2022-10-09T01:42:26.887Z,101779.94
2022-10-09T01:45:16.695Z,101778.28
2022-10-09T01:48:04.051Z,101776.56
2022-10-09T01:50:57.661Z,101785.34
2022-10-09T01:53:45.787Z,101784.16
2022-10-09T01:56:38.063Z,101774.38
2022-10-09T01:59:27.729Z,101780.78
2022-10-09T02:02:16.862Z,101777.34
2022-10-09T02:05:05.382Z,101775.66
2022-10-09T02:07:53.612Z,101777.34
2022-10-09T02:10:42.359Z,101777.59
2022-10-09T02:13:30.945Z,101774.94
2022-10-09T02:16:22.434Z,101777.31
2022-10-09T02:19:15.084Z,101784.31
2022-10-09T02:22:09.065Z,101775.22
2022-10-09T02:24:58.372Z,101785.78
2022-10-09T02:27:46.233Z,101775.94
2022-10-09T02:30:42.917Z,101775.81
2022-10-09T02:33:32.784Z,101781.09
2022-10-09T02:36:21.778Z,101778.16
2022-10-09T02:39:10.003Z,101772.31
2022-10-09T02:41:57.305Z,101774.50
2022-10-09T02:44:44.456Z,101767.66
2022-10-09T02:47:31.826Z,101777.47
2022-10-09T02:50:19.367Z,101777.72
2022-10-09T02:53:07.863Z,101777.22
2022-10-09T02:55:55.434Z,101766.41
2022-10-09T02:58:42.807Z,101769.00
2022-10-09T03:01:30.547Z,101783.13
2022-10-09T03:04:18.351Z,101776.97
2022-10-09T03:07:05.745Z,101787.31
2022-10-09T03:09:54.815Z,101775.78
2022-10-09T03:12:41.799Z,101770.97
2022-10-09T03:15:29.186Z,101777.22
2022-10-09T03:18:16.612Z,101774.66
2022-10-09T03:21:07.221Z,101781.78
2022-10-09T03:23:55.148Z,101771.81
2022-10-09T03:26:44.189Z,101775.28
2022-10-09T03:29:31.656Z,101778.81
2022-10-09T03:32:18.838Z,101785.56
2022-10-09T03:35:07.181Z,101788.63
2022-10-09T03:37:54.354Z,101789.22
2022-10-09T03:40:41.993Z,101785.00
2022-10-09T03:43:30.666Z,101788.41
2022-10-09T03:46:18.471Z,101793.91
2022-10-09T03:49:05.925Z,101794.81
2022-10-09T03:51:53.264Z,101795.81
2022-10-09T03:54:40.237Z,101789.75
2022-10-09T03:57:27.773Z,101789.19
2022-10-09T04:00:17.719Z,101783.50
2022-10-09T04:03:05.174Z,101778.47
2022-10-09T04:05:52.990Z,101790.16
2022-10-09T04:08:40.244Z,101792.91
2022-10-09T04:11:27.280Z,101786.25
2022-10-09T04:14:14.770Z,101779.06
2022-10-09T04:17:03.827Z,101784.06
2022-10-09T04:19:50.995Z,101783.63
2022-10-09T04:22:38.574Z,101788.31
2022-10-09T04:25:26.143Z,101786.59
2022-10-09T04:28:13.637Z,101779.84
2022-10-09T04:31:01.632Z,101781.22
2022-10-09T04:33:50.353Z,101781.81
2022-10-09T04:36:38.265Z,101780.97
2022-10-09T04:39:25.863Z,101779.78
2022-10-09T04:42:12.913Z,101782.13
2022-10-09T04:45:00.002Z,101777.34
2022-10-09T04:47:47.538Z,101773.69
2022-10-09T04:50:35.945Z,101776.84
2022-10-09T04:53:23.484Z,101772.84
2022-10-09T04:56:12.904Z,101779.84
2022-10-09T04:59:00.400Z,101776.91
2022-10-09T05:01:47.899Z,101778.91
2022-10-09T05:04:34.987Z,101779.56
2022-10-09T05:07:23.225Z,101779.94
2022-10-09T05:10:11.162Z,101781.16
2022-10-09T05:12:58.640Z,101778.00
2022-10-09T05:15:46.135Z,101771.00
2022-10-09T05:18:33.608Z,101775.81
2022-10-09T05:21:21.816Z,101777.75
2022-10-09T05:24:11.022Z,101776.28
2022-10-09T05:26:58.704Z,101779.25
2022-10-09T05:29:46.025Z,101777.53
2022-10-09T05:32:34.041Z,101781.94
2022-10-09T05:35:21.061Z,101792.00
2022-10-09T05:38:08.803Z,101790.53
2022-10-09T05:40:59.351Z,101790.03
2022-10-09T05:43:48.254Z,101783.19
2022-10-09T05:46:36.331Z,101788.34
2022-10-09T05:49:24.059Z,101793.09
2022-10-09T05:52:11.611Z,101794.84
2022-10-09T05:54:59.132Z,101801.31
2022-10-09T05:57:47.854Z,101786.22
2022-10-09T06:00:34.899Z,101786.94
2022-10-09T06:03:22.392Z,101788.22
2022-10-09T06:06:09.977Z,101783.56
2022-10-09T06:08:58.134Z,101778.34
2022-10-09T06:11:45.799Z,101789.25
2022-10-09T06:14:36.074Z,101786.72
2022-10-09T06:17:23.818Z,101779.31
2022-10-09T06:20:11.379Z,101776.81
2022-10-09T06:22:58.726Z,101785.97
2022-10-09T06:25:52.569Z,101771.38
2022-10-09T06:28:40.483Z,101780.16
2022-10-09T06:31:31.020Z,101780.94
2022-10-09T06:34:18.407Z,101791.22
2022-10-09T06:37:05.637Z,101791.63
2022-10-09T06:39:53.315Z,101788.91
2022-10-09T06:42:40.813Z,101783.91
2022-10-09T06:45:38.877Z,101784.19
2022-10-09T06:48:29.367Z,101780.66
2022-10-09T06:51:18.723Z,101784.53
2022-10-09T06:54:12.094Z,101778.97
2022-10-09T06:56:59.526Z,101783.78
2022-10-09T06:59:49.998Z,101785.03
2022-10-09T07:02:41.744Z,101792.97
2022-10-09T07:05:31.939Z,101799.53
2022-10-09T07:08:19.434Z,101797.19
2022-10-09T07:11:14.534Z,101807.44
2022-10-09T07:14:03.907Z,101801.94
2022-10-09T07:16:53.479Z,101805.19
2022-10-09T07:19:40.942Z,101804.41
2022-10-09T07:22:29.614Z,101809.81
2022-10-09T07:25:17.477Z,101804.28
2022-10-09T07:28:05.597Z,101808.63
2022-10-09T07:30:53.197Z,101803.56
2022-10-09T07:33:41.778Z,101802.97
2022-10-09T07:36:29.696Z,101805.47
2022-10-09T07:39:20.241Z,101801.56
2022-10-09T07:42:07.476Z,101795.41
2022-10-09T07:44:55.506Z,101797.56
2022-10-09T07:47:42.798Z,101802.41
2022-10-09T07:50:30.224Z,101800.44
2022-10-09T07:53:17.331Z,101800.16
2022-10-09T07:56:07.126Z,101800.38
2022-10-09T07:58:56.398Z,101804.16
2022-10-09T08:01:44.358Z,101799.34
2022-10-09T08:04:32.057Z,101798.50
2022-10-09T08:07:19.322Z,101790.84
2022-10-09T08:10:07.455Z,101803.47
2022-10-09T08:12:56.259Z,101796.13
2022-10-09T08:15:43.775Z,101794.59
2022-10-09T08:18:31.102Z,101792.38
2022-10-09T08:21:20.374Z,101797.66
2022-10-09T08:24:07.798Z,101792.88
2022-10-09T08:26:55.244Z,101794.06
2022-10-09T08:29:44.384Z,101783.66
2022-10-09T08:32:31.973Z,101798.69
2022-10-09T08:35:19.534Z,101795.59
2022-10-09T08:38:07.179Z,101795.59
2022-10-09T08:41:00.216Z,101785.72
2022-10-09T08:43:51.312Z,101789.78
2022-10-09T08:46:50.366Z,101784.56
2022-10-09T08:49:46.375Z,101778.56
2022-10-09T08:52:40.734Z,101774.59
2022-10-09T08:55:31.144Z,101773.91
2022-10-09T08:58:21.142Z,101778.13
2022-10-09T09:01:18.099Z,101772.91
2022-10-09T09:04:28.401Z,101772.63
2022-10-09T09:07:24.809Z,101766.59
2022-10-09T09:10:20.214Z,101766.13
2022-10-09T09:13:23.448Z,101760.81
2022-10-09T09:16:16.864Z,101754.00
2022-10-09T09:19:17.254Z,101754.28
2022-10-09T09:22:10.364Z,101756.41
2022-10-09T09:25:00.052Z,101745.13
2022-10-09T09:27:48.345Z,101747.41
2022-10-09T09:30:41.867Z,101744.78
2022-10-09T09:33:44.253Z,101750.44
2022-10-09T09:36:36.766Z,101745.06
2022-10-09T09:40:42.241Z,101740.13
2022-10-09T09:42:37.800Z,101738.44
2022-10-09T09:45:27.245Z,101731.63
2022-10-09T09:48:18.585Z,101721.44
2022-10-09T09:51:27.328Z,101725.28
2022-10-09T09:54:19.632Z,101717.03
2022-10-09T09:57:17.097Z,101715.53
2022-10-09T10:00:20.732Z,101709.72
2022-10-09T10:03:14.836Z,101710.44
2022-10-09T10:06:02.642Z,101697.00
2022-10-09T10:08:59.697Z,101700.22
2022-10-09T10:11:50.400Z,101697.75
2022-10-09T10:14:39.316Z,101691.13
2022-10-09T10:17:29.542Z,101693.88
2022-10-09T10:20:17.793Z,101678.06
2022-10-09T10:23:05.110Z,101683.19
2022-10-09T10:25:54.786Z,101682.22
2022-10-09T10:28:49.788Z,101689.00
2022-10-09T10:31:47.500Z,101682.66
2022-10-09T10:34:41.997Z,101679.25
2022-10-09T10:37:35.215Z,101676.78
2022-10-09T10:40:27.492Z,101670.19
2022-10-09T10:43:32.447Z,101669.28
2022-10-09T10:46:24.988Z,101655.53
2022-10-09T10:49:18.745Z,101658.09
2022-10-09T10:52:18.236Z,101649.88
2022-10-09T10:55:22.498Z,101646.41
2022-10-09T10:58:24.781Z,101646.63
2022-10-09T11:01:24.729Z,101631.66
2022-10-09T11:04:34.043Z,101637.16
2022-10-09T11:07:30.246Z,101633.47
2022-10-09T11:10:25.126Z,101622.91
2022-10-09T11:13:19.889Z,101630.16
2022-10-09T11:16:23.813Z,101620.84
2022-10-09T11:19:45.614Z,101611.97
2022-10-09T11:23:00.663Z,101614.59
2022-10-09T11:25:55.912Z,101609.09
2022-10-09T11:28:50.509Z,101605.25
2022-10-09T11:31:42.556Z,101584.91
2022-10-09T11:34:36.498Z,101590.03
2022-10-09T11:37:29.528Z,101577.72
2022-10-09T11:40:20.929Z,101575.66
2022-10-09T11:43:22.489Z,101567.13
2022-10-09T11:46:14.401Z,101574.78
2022-10-09T11:49:11.880Z,101566.69
2022-10-09T11:52:08.336Z,101555.72
2022-10-09T11:54:55.795Z,101562.19
2022-10-09T11:57:42.962Z,101546.75
2022-10-09T12:00:33.604Z,101547.59
2022-10-09T12:03:27.273Z,101541.25
2022-10-09T12:06:17.708Z,101536.19
2022-10-09T12:09:09.396Z,101530.25
2022-10-09T12:12:03.584Z,101525.59
2022-10-09T12:14:52.784Z,101520.50
2022-10-09T12:17:49.945Z,101516.69
2022-10-09T12:20:39.178Z,101509.03
2022-10-09T12:23:31.611Z,101501.84
2022-10-09T12:26:23.275Z,101510.75
2022-10-09T12:29:20.282Z,101503.09
2022-10-09T12:32:13.850Z,101491.06
2022-10-09T12:35:05.847Z,101491.25
2022-10-09T12:37:53.710Z,101484.47
2022-10-09T12:40:47.695Z,101490.56
2022-10-09T12:43:37.645Z,101479.16
2022-10-09T12:46:31.542Z,101479.97
2022-10-09T12:49:21.860Z,101468.34
2022-10-09T12:52:17.032Z,101468.56
2022-10-09T12:55:16.272Z,101467.50
2022-10-09T12:58:06.432Z,101456.91
2022-10-09T13:00:58.058Z,101449.91
2022-10-09T13:03:55.200Z,101446.50
2022-10-09T13:06:47.707Z,101446.75
2022-10-09T13:09:38.474Z,101441.69
2022-10-09T13:12:28.688Z,101443.16
2022-10-09T13:15:30.701Z,101434.47
2022-10-09T13:18:24.052Z,101432.13
2022-10-09T13:21:24.435Z,101425.75
2022-10-09T13:24:14.201Z,101419.19
2022-10-09T13:27:01.936Z,101410.06
2022-10-09T13:29:50.052Z,101416.03
2022-10-09T13:32:37.996Z,101421.31
2022-10-09T13:35:26.995Z,101409.25
2022-10-09T13:38:17.235Z,101407.38
2022-10-09T13:41:05.016Z,101404.59
2022-10-09T13:43:54.375Z,101407.34
2022-10-09T13:46:41.945Z,101407.78
2022-10-09T13:49:29.574Z,101404.38
2022-10-09T13:52:18.381Z,101393.34
2022-10-09T13:55:06.408Z,101396.13
2022-10-09T13:57:55.952Z,101389.97
2022-10-09T14:00:47.256Z,101375.59
2022-10-09T14:03:35.171Z,101384.03
2022-10-09T14:06:24.727Z,101373.44
2022-10-09T14:09:13.766Z,101374.28
2022-10-09T14:12:01.363Z,101365.41
2022-10-09T14:14:49.037Z,101360.97
2022-10-09T14:17:36.576Z,101355.69
2022-10-09T14:20:25.103Z,101364.16
2022-10-09T14:23:13.553Z,101355.69
2022-10-09T14:26:05.355Z,101346.78
2022-10-09T14:28:53.785Z,101343.00
2022-10-09T14:31:40.976Z,101345.31
2022-10-09T14:34:29.011Z,101334.09
2022-10-09T14:37:29.836Z,101329.84
2022-10-09T14:40:23.381Z,101323.50
2022-10-09T14:43:12.049Z,101313.16
2022-10-09T14:46:04.418Z,101314.16
2022-10-09T14:48:51.568Z,101305.75
2022-10-09T14:51:40.263Z,101301.47
2022-10-09T14:54:27.616Z,101298.06
2022-10-09T14:57:15.289Z,101299.78
2022-10-09T15:00:05.738Z,101289.63
2022-10-09T15:02:55.169Z,101287.47
2022-10-09T15:05:44.970Z,101283.22
2022-10-09T15:08:33.904Z,101285.78
2022-10-09T15:11:21.457Z,101281.13
2022-10-09T15:14:09.028Z,101277.53
2022-10-09T15:16:57.923Z,101267.19
2022-10-09T15:19:45.617Z,101267.38
2022-10-09T15:22:33.022Z,101266.94
2022-10-09T15:25:20.312Z,101268.44
2022-10-09T15:28:08.165Z,101269.69
2022-10-09T15:30:57.157Z,101264.44
2022-10-09T15:33:45.844Z,101260.78
2022-10-09T15:36:36.608Z,101258.88
2022-10-09T15:39:23.655Z,101256.53
2022-10-09T15:42:11.318Z,101256.13
2022-10-09T15:44:59.536Z,101253.34
2022-10-09T15:47:51.146Z,101245.34
2022-10-09T15:50:41.375Z,101245.50
2022-10-09T15:53:28.924Z,101243.41
2022-10-09T15:56:33.852Z,101239.16
2022-10-09T15:59:31.588Z,101239.13
2022-10-09T16:02:19.184Z,101240.38
2022-10-09T16:05:07.562Z,101236.53
2022-10-09T16:07:56.584Z,101236.06
2022-10-09T16:10:48.579Z,101226.31
2022-10-09T16:13:39.306Z,101210.91
2022-10-09T16:16:27.775Z,101217.81
2022-10-09T16:19:15.141Z,101212.75
2022-10-09T16:22:02.740Z,101213.59
2022-10-09T16:24:51.381Z,101213.97
2022-10-09T16:27:39.050Z,101200.63
2022-10-09T16:30:26.620Z,101203.16
2022-10-09T16:33:14.236Z,101205.25
2022-10-09T16:36:09.235Z,101200.56
2022-10-09T16:38:57.760Z,101196.31
2022-10-09T16:41:46.037Z,101204.06
2022-10-09T16:44:33.631Z,101200.59
2022-10-09T16:47:20.888Z,101201.44
2022-10-09T16:50:09.563Z,101200.16
2022-10-09T16:52:57.838Z,101197.81
2022-10-09T16:55:45.267Z,101201.16
2022-10-09T16:58:34.394Z,101195.91
2022-10-09T17:01:21.713Z,101207.28
2022-10-09T17:04:09.458Z,101213.69
2022-10-09T17:06:57.073Z,101211.34
2022-10-09T17:09:44.402Z,101206.59
2022-10-09T17:12:32.269Z,101206.78
2022-10-09T17:15:21.087Z,101203.16
2022-10-09T17:18:08.908Z,101206.09
2022-10-09T17:20:56.599Z,101203.56
2022-10-09T17:23:44.021Z,101196.75
2022-10-09T17:26:31.423Z,101193.63
2022-10-09T17:29:19.057Z,101198.47
2022-10-09T17:32:09.434Z,101188.69
2022-10-09T17:34:56.893Z,101196.00
2022-10-09T17:37:44.855Z,101199.47
2022-10-09T17:40:32.521Z,101195.19
2022-10-09T17:43:20.567Z,101199.22
2022-10-09T17:46:08.340Z,101191.09
2022-10-09T17:48:58.512Z,101185.72
2022-10-09T17:51:47.273Z,101185.22
2022-10-09T17:54:34.447Z,101183.50
2022-10-09T17:57:22.212Z,101182.13
2022-10-09T18:00:11.346Z,101190.22
2022-10-09T18:02:58.732Z,101185.47
2022-10-09T18:05:49.776Z,101185.56
2022-10-09T18:08:37.935Z,101183.22
2022-10-09T18:11:27.009Z,101178.13
2022-10-09T18:14:14.675Z,101175.81
2022-10-09T18:17:02.052Z,101173.22
2022-10-09T18:19:49.509Z,101174.44
2022-10-09T18:22:38.522Z,101171.94
2022-10-09T18:25:26.354Z,101166.47
2022-10-09T18:28:15.231Z,101165.97
2022-10-09T18:31:05.844Z,101160.94
2022-10-09T18:33:54.028Z,101177.56
2022-10-09T18:36:41.616Z,101169.56
2022-10-09T18:39:30.708Z,101162.09
2022-10-09T18:42:18.371Z,101152.94
2022-10-09T18:45:06.672Z,101148.22
2022-10-09T18:47:54.851Z,101147.97
2022-10-09T18:50:42.870Z,101152.09
2022-10-09T18:53:31.377Z,101146.38
2022-10-09T18:56:21.911Z,101150.00
2022-10-09T18:59:12.760Z,101136.38
2022-10-09T19:02:00.119Z,101141.88
2022-10-09T19:04:47.802Z,101136.09
2022-10-09T19:07:35.281Z,101129.50
2022-10-09T19:10:22.815Z,101125.44
2022-10-09T19:13:11.766Z,101121.53
2022-10-09T19:16:00.015Z,101119.69
2022-10-09T19:18:47.810Z,101120.38
2022-10-09T19:21:36.414Z,101122.59
2022-10-09T19:24:24.149Z,101118.53
2022-10-09T19:27:12.354Z,101112.91
2022-10-09T19:30:02.114Z,101113.78
2022-10-09T19:32:49.847Z,101120.41
2022-10-09T19:35:46.085Z,101112.56
2022-10-09T19:38:34.460Z,101106.78
2022-10-09T19:41:22.092Z,101113.28
2022-10-09T19:44:10.684Z,101111.53
2022-10-09T19:47:00.236Z,101107.31
2022-10-09T19:49:47.749Z,101103.72
2022-10-09T19:52:35.287Z,101095.13
2022-10-09T19:55:26.504Z,101086.56
2022-10-09T19:58:18.044Z,101089.56
2022-10-09T20:01:05.659Z,101086.31
2022-10-09T20:03:57.564Z,101092.84
2022-10-09T20:06:47.535Z,101082.00
2022-10-09T20:09:35.488Z,101094.81
2022-10-09T20:12:22.828Z,101077.75
2022-10-09T20:15:11.188Z,101096.19
2022-10-09T20:17:59.489Z,101090.31
2022-10-09T20:20:49.948Z,101079.66
2022-10-09T20:23:38.160Z,101079.66
2022-10-09T20:26:26.615Z,101084.81
2022-10-09T20:29:14.256Z,101078.88
2022-10-09T20:32:01.545Z,101086.16
2022-10-09T20:34:49.013Z,101079.72
2022-10-09T20:37:37.820Z,101073.47
2022-10-09T20:40:25.322Z,101081.81
2022-10-09T20:43:13.457Z,101080.53
2022-10-09T20:46:00.998Z,101067.56
2022-10-09T20:48:48.819Z,101073.22
2022-10-09T20:51:36.904Z,101068.09
2022-10-09T20:54:25.629Z,101063.50
2022-10-09T20:57:13.011Z,101064.00
2022-10-09T21:00:00.169Z,101063.25
2022-10-09T21:02:47.816Z,101059.81
2022-10-09T21:05:41.492Z,101061.72
2022-10-09T21:08:29.374Z,101055.56
2022-10-09T21:11:20.791Z,101053.59
2022-10-09T21:14:08.261Z,101044.72
2022-10-09T21:16:55.516Z,101047.66
2022-10-09T21:19:43.394Z,101046.28
2022-10-09T21:22:30.536Z,101044.53
2022-10-09T21:25:18.118Z,101040.59
2022-10-09T21:28:07.199Z,101031.44
2022-10-09T21:30:55.645Z,101029.94
2022-10-09T21:33:43.281Z,101032.38
2022-10-09T21:36:35.609Z,101034.03
2022-10-09T21:39:23.374Z,101025.66
2022-10-09T21:42:10.727Z,101026.06
2022-10-09T21:44:59.545Z,101031.69
2022-10-09T21:47:47.143Z,101022.38
2022-10-09T21:50:36.479Z,101009.50
2022-10-09T21:53:23.962Z,101022.97
2022-10-09T21:56:11.217Z,101017.00
2022-10-09T21:58:58.606Z,101011.50
2022-10-09T22:01:47.331Z,101014.59
2022-10-09T22:04:35.092Z,101000.31
2022-10-09T22:07:23.620Z,101004.09
2022-10-09T22:10:11.812Z,100993.66
2022-10-09T22:12:59.616Z,100996.00
2022-10-09T22:15:50.951Z,100995.66
2022-10-09T22:18:40.646Z,100987.00
2022-10-09T22:21:28.043Z,100978.19
2022-10-09T22:24:15.503Z,100979.25
2022-10-09T22:27:03.152Z,100974.84
2022-10-09T22:29:50.684Z,100974.53
2022-10-09T22:32:38.040Z,100969.94
2022-10-09T22:35:27.657Z,100971.13
2022-10-09T22:38:15.321Z,100975.56
2022-10-09T22:41:08.905Z,100966.72
2022-10-09T22:43:57.912Z,100971.06
2022-10-09T22:46:46.081Z,100961.25
2022-10-09T22:49:33.250Z,100961.91
2022-10-09T22:52:21.779Z,100963.03
2022-10-09T22:55:10.291Z,100955.22
2022-10-09T22:57:57.835Z,100953.00
2022-10-09T23:00:45.215Z,100946.44
2022-10-09T23:03:32.159Z,100944.25
2022-10-09T23:06:21.352Z,100945.34
2022-10-09T23:09:12.238Z,100939.34
2022-10-09T23:12:00.537Z,100943.28
2022-10-09T23:14:48.179Z,100943.22
2022-10-09T23:17:35.737Z,100940.69
2022-10-09T23:20:23.338Z,100930.94
2022-10-09T23:23:10.871Z,100937.38
2022-10-09T23:26:00.099Z,100930.94
2022-10-09T23:28:51.239Z,100925.56
2022-10-09T23:31:38.413Z,100925.16
2022-10-09T23:34:25.927Z,100926.13
2022-10-09T23:37:12.940Z,100907.78
2022-10-09T23:40:00.474Z,100906.28
2022-10-09T23:42:49.642Z,100906.28
2022-10-09T23:45:41.505Z,100905.50
2022-10-09T23:48:29.838Z,100903.44
2022-10-09T23:51:19.068Z,100902.97
2022-10-09T23:54:07.306Z,100903.34
2022-10-09T23:56:54.622Z,100901.47
2022-10-09T23:59:43.967Z,100911.31
